CheckWX is a tool to help pilots better visualize weather data.  It is not intended as a substitute for an official pre-flight weather briefing.

18:15:15 UTC

LIMF METAR
Turin Airport
Torino, Italy
Current

25 mins ago

LIMF 211750Z 36004KT 3000 BR SCT012 OVC020 09/09 Q1012
Observed
Nov-21 @ 17:50 UTC
Wind
  • 360° at 4 KTS
Visibility
3,000 meters
Flight Rules
IFR
Conditions
Mist
Cloud Levels
  • Scattered at 1,200' AGL
  • Overcast at 2,000' AGL
Temperature
C / 48°F
Dewpoint
C / 48°F
Humidity
100%
Altimeter
29.88" Hg
Pressure
1011.92 hPa
Previous

55 mins ago

LIMF 211720Z 01005KT 2500 -DZ BR BKN012 OVC030 09/09 Q1012
Observed
Nov-21 @ 17:20 UTC
Wind
  • 010° at 5 KTS
Visibility
2,500 meters
Flight Rules
IFR
Conditions
Light Drizzle, Mist
Cloud Levels
  • Broken at 1,200' AGL
  • Overcast at 3,000' AGL
Temperature
C / 48°F
Dewpoint
C / 48°F
Humidity
100%
Altimeter
29.88" Hg
Pressure
1011.92 hPa
Previous

1 hour ago

LIMF 211650Z 02003KT 2500 -RA BR BKN005 09/09 Q1012
Observed
Nov-21 @ 16:50 UTC
Wind
  • 020° at 3 KTS
Visibility
2,500 meters
Flight Rules
IFR
Conditions
Light Rain, Mist
Cloud Levels
  • Broken at 500' AGL
Temperature
C / 48°F
Dewpoint
C / 48°F
Humidity
100%
Altimeter
29.88" Hg
Pressure
1011.92 hPa